sensor_id;sensor_type;location;lat;lon;timestamp;temperature;humidity
76203;DHT22;64985;46.364;17.008;2022-12-18T00:00:22;-4.20;99.90
76203;DHT22;64985;46.364;17.008;2022-12-18T00:03:25;-4.20;99.90
76203;DHT22;64985;46.364;17.008;2022-12-18T00:06:28;-4.30;99.90
76203;DHT22;64985;46.364;17.008;2022-12-18T00:09:31;-4.40;99.90
76203;DHT22;64985;46.364;17.008;2022-12-18T00:12:41;-4.40;99.90
76203;DHT22;64985;46.364;17.008;2022-12-18T00:15:43;-4.40;99.90
76203;DHT22;64985;46.364;17.008;2022-12-18T00:18:45;-4.40;99.90
76203;DHT22;64985;46.364;17.008;2022-12-18T00:21:48;-4.40;99.90
76203;DHT22;64985;46.364;17.008;2022-12-18T00:24:50;-4.50;99.90
76203;DHT22;64985;46.364;17.008;2022-12-18T00:27:52;-4.40;99.90
76203;DHT22;64985;46.364;17.008;2022-12-18T00:31:08;-4.40;99.90
76203;DHT22;64985;46.364;17.008;2022-12-18T00:34:12;-4.40;99.90
76203;DHT22;64985;46.364;17.008;2022-12-18T00:37:15;-4.40;99.90
76203;DHT22;64985;46.364;17.008;2022-12-18T00:40:21;-4.30;99.90
76203;DHT22;64985;46.364;17.008;2022-12-18T00:43:23;-3.80;99.90
76203;DHT22;64985;46.364;17.008;2022-12-18T00:46:25;-3.70;99.90
76203;DHT22;64985;46.364;17.008;2022-12-18T00:49:27;-3.60;99.90
76203;DHT22;64985;46.364;17.008;2022-12-18T00:52:29;-3.70;99.90
76203;DHT22;64985;46.364;17.008;2022-12-18T00:55:32;-3.90;99.90
76203;DHT22;64985;46.364;17.008;2022-12-18T00:58:34;-4.10;99.90
76203;DHT22;64985;46.364;17.008;2022-12-18T01:01:36;-4.20;99.90
76203;DHT22;64985;46.364;17.008;2022-12-18T01:04:38;-4.20;99.90
76203;DHT22;64985;46.364;17.008;2022-12-18T01:07:41;-4.30;99.90
76203;DHT22;64985;46.364;17.008;2022-12-18T01:10:43;-4.40;99.90
76203;DHT22;64985;46.364;17.008;2022-12-18T01:13:46;-4.30;99.90
76203;DHT22;64985;46.364;17.008;2022-12-18T01:16:48;-4.30;99.90
76203;DHT22;64985;46.364;17.008;2022-12-18T01:19:50;-4.20;99.90
76203;DHT22;64985;46.364;17.008;2022-12-18T01:22:52;-4.10;99.90
76203;DHT22;64985;46.364;17.008;2022-12-18T01:25:55;-4.10;99.90
76203;DHT22;64985;46.364;17.008;2022-12-18T01:28:57;-4.00;99.90
76203;DHT22;64985;46.364;17.008;2022-12-18T01:31:59;-4.10;99.90
76203;DHT22;64985;46.364;17.008;2022-12-18T01:35:02;-4.00;99.90
76203;DHT22;64985;46.364;17.008;2022-12-18T01:38:04;-4.00;99.90
76203;DHT22;64985;46.364;17.008;2022-12-18T01:41:07;-4.00;99.90
76203;DHT22;64985;46.364;17.008;2022-12-18T01:47:52;-3.90;99.90
76203;DHT22;64985;46.364;17.008;2022-12-18T01:50:55;-3.80;99.90
76203;DHT22;64985;46.364;17.008;2022-12-18T01:53:59;-3.70;99.90
76203;DHT22;64985;46.364;17.008;2022-12-18T01:57:02;-3.70;99.90
76203;DHT22;64985;46.364;17.008;2022-12-18T02:00:07;-3.70;99.90
76203;DHT22;64985;46.364;17.008;2022-12-18T02:03:10;-3.60;99.90
76203;DHT22;64985;46.364;17.008;2022-12-18T02:06:14;-3.60;99.90
76203;DHT22;64985;46.364;17.008;2022-12-18T02:09:22;-3.60;99.90
76203;DHT22;64985;46.364;17.008;2022-12-18T02:13:04;-3.50;99.90
76203;DHT22;64985;46.364;17.008;2022-12-18T02:16:26;-3.50;99.90
76203;DHT22;64985;46.364;17.008;2022-12-18T02:29:24;-3.30;99.90
76203;DHT22;64985;46.364;17.008;2022-12-18T02:32:35;-3.30;99.90
76203;DHT22;64985;46.364;17.008;2022-12-18T02:35:40;-3.30;99.90
76203;DHT22;64985;46.364;17.008;2022-12-18T02:38:44;-3.20;99.90
76203;DHT22;64985;46.364;17.008;2022-12-18T02:41:47;-3.20;99.90
76203;DHT22;64985;46.364;17.008;2022-12-18T02:44:51;-3.20;99.90
76203;DHT22;64985;46.364;17.008;2022-12-18T02:47:54;-3.20;99.90
76203;DHT22;64985;46.364;17.008;2022-12-18T02:51:21;-3.20;99.90
76203;DHT22;64985;46.364;17.008;2022-12-18T02:54:43;-3.20;99.90
76203;DHT22;64985;46.364;17.008;2022-12-18T02:57:55;-3.20;99.90
76203;DHT22;64985;46.364;17.008;2022-12-18T03:01:09;-3.20;99.90
76203;DHT22;64985;46.364;17.008;2022-12-18T03:04:24;-3.20;99.90
76203;DHT22;64985;46.364;17.008;2022-12-18T03:07:39;-3.20;99.90
76203;DHT22;64985;46.364;17.008;2022-12-18T03:10:49;-3.20;99.90
76203;DHT22;64985;46.364;17.008;2022-12-18T03:13:56;-3.20;99.90
76203;DHT22;64985;46.364;17.008;2022-12-18T03:17:02;-3.20;99.90
76203;DHT22;64985;46.364;17.008;2022-12-18T03:20:10;-3.20;99.90
76203;DHT22;64985;46.364;17.008;2022-12-18T03:23:16;-3.30;99.90
76203;DHT22;64985;46.364;17.008;2022-12-18T03:26:23;-3.30;99.90
76203;DHT22;64985;46.364;17.008;2022-12-18T03:30:06;-3.40;99.90
76203;DHT22;64985;46.364;17.008;2022-12-18T03:33:13;-3.30;99.90
76203;DHT22;64985;46.364;17.008;2022-12-18T03:36:19;-3.30;99.90
76203;DHT22;64985;46.364;17.008;2022-12-18T03:39:22;-3.40;99.90
76203;DHT22;64985;46.364;17.008;2022-12-18T03:49:47;-3.50;99.90
76203;DHT22;64985;46.364;17.008;2022-12-18T03:53:00;-3.40;99.90
76203;DHT22;64985;46.364;17.008;2022-12-18T03:56:09;-3.60;99.90
76203;DHT22;64985;46.364;17.008;2022-12-18T03:59:17;-3.70;99.90
76203;DHT22;64985;46.364;17.008;2022-12-18T04:02:22;-3.70;99.90
76203;DHT22;64985;46.364;17.008;2022-12-18T04:05:26;-3.90;99.90
76203;DHT22;64985;46.364;17.008;2022-12-18T04:08:30;-3.90;99.90
76203;DHT22;64985;46.364;17.008;2022-12-18T04:11:32;-3.90;99.90
76203;DHT22;64985;46.364;17.008;2022-12-18T04:14:34;-3.90;99.90
76203;DHT22;64985;46.364;17.008;2022-12-18T04:17:38;-4.00;99.90
76203;DHT22;64985;46.364;17.008;2022-12-18T04:20:40;-4.00;99.90
76203;DHT22;64985;46.364;17.008;2022-12-18T04:23:42;-4.10;99.90
76203;DHT22;64985;46.364;17.008;2022-12-18T04:26:44;-4.10;99.90
76203;DHT22;64985;46.364;17.008;2022-12-18T04:29:47;-4.20;99.90
76203;DHT22;64985;46.364;17.008;2022-12-18T04:32:49;-4.30;99.90
76203;DHT22;64985;46.364;17.008;2022-12-18T04:35:53;-4.30;99.90
76203;DHT22;64985;46.364;17.008;2022-12-18T04:38:55;-4.20;99.90
76203;DHT22;64985;46.364;17.008;2022-12-18T04:41:57;-4.20;99.90
76203;DHT22;64985;46.364;17.008;2022-12-18T04:44:59;-4.30;99.90
76203;DHT22;64985;46.364;17.008;2022-12-18T04:48:02;-4.30;99.90
76203;DHT22;64985;46.364;17.008;2022-12-18T04:51:05;-4.20;99.90
76203;DHT22;64985;46.364;17.008;2022-12-18T04:54:07;-4.00;99.90
76203;DHT22;64985;46.364;17.008;2022-12-18T04:57:09;-4.20;99.90
76203;DHT22;64985;46.364;17.008;2022-12-18T05:00:12;-4.40;99.90
76203;DHT22;64985;46.364;17.008;2022-12-18T05:03:14;-4.50;99.90
76203;DHT22;64985;46.364;17.008;2022-12-18T05:06:16;-4.50;99.90
76203;DHT22;64985;46.364;17.008;2022-12-18T05:09:18;-4.50;99.90
76203;DHT22;64985;46.364;17.008;2022-12-18T05:12:24;-4.40;99.90
76203;DHT22;64985;46.364;17.008;2022-12-18T05:15:32;-4.40;99.90
76203;DHT22;64985;46.364;17.008;2022-12-18T05:18:35;-4.40;99.90
76203;DHT22;64985;46.364;17.008;2022-12-18T05:21:37;-4.40;99.90
76203;DHT22;64985;46.364;17.008;2022-12-18T05:24:39;-4.40;99.90
76203;DHT22;64985;46.364;17.008;2022-12-18T05:27:41;-4.40;99.90
76203;DHT22;64985;46.364;17.008;2022-12-18T05:30:50;-4.50;99.90
76203;DHT22;64985;46.364;17.008;2022-12-18T05:37:14;-4.70;99.90
76203;DHT22;64985;46.364;17.008;2022-12-18T05:40:17;-4.70;99.90
76203;DHT22;64985;46.364;17.008;2022-12-18T05:43:20;-4.80;99.90
76203;DHT22;64985;46.364;17.008;2022-12-18T05:46:23;-4.80;99.90
76203;DHT22;64985;46.364;17.008;2022-12-18T05:49:26;-4.90;99.90
76203;DHT22;64985;46.364;17.008;2022-12-18T05:52:28;-4.90;99.90
76203;DHT22;64985;46.364;17.008;2022-12-18T05:55:38;-4.90;99.90
76203;DHT22;64985;46.364;17.008;2022-12-18T05:58:41;-4.90;99.90
76203;DHT22;64985;46.364;17.008;2022-12-18T06:01:43;-5.00;99.90
76203;DHT22;64985;46.364;17.008;2022-12-18T06:04:46;-5.00;99.90
76203;DHT22;64985;46.364;17.008;2022-12-18T06:07:48;-5.10;99.90
76203;DHT22;64985;46.364;17.008;2022-12-18T06:10:51;-5.10;99.90
76203;DHT22;64985;46.364;17.008;2022-12-18T06:13:56;-5.20;99.90
76203;DHT22;64985;46.364;17.008;2022-12-18T06:17:01;-5.20;99.90
76203;DHT22;64985;46.364;17.008;2022-12-18T06:20:04;-5.20;99.90
76203;DHT22;64985;46.364;17.008;2022-12-18T06:23:08;-5.20;99.90
76203;DHT22;64985;46.364;17.008;2022-12-18T06:26:12;-5.20;99.90
76203;DHT22;64985;46.364;17.008;2022-12-18T06:29:15;-5.20;99.90
76203;DHT22;64985;46.364;17.008;2022-12-18T06:32:17;-5.30;99.90
76203;DHT22;64985;46.364;17.008;2022-12-18T06:35:19;-5.40;99.90
76203;DHT22;64985;46.364;17.008;2022-12-18T06:38:21;-5.40;99.90
76203;DHT22;64985;46.364;17.008;2022-12-18T06:41:24;-5.40;99.90
76203;DHT22;64985;46.364;17.008;2022-12-18T06:44:26;-5.40;99.90
76203;DHT22;64985;46.364;17.008;2022-12-18T06:47:28;-5.40;99.90
76203;DHT22;64985;46.364;17.008;2022-12-18T06:50:30;-5.40;99.90
76203;DHT22;64985;46.364;17.008;2022-12-18T06:53:33;-5.40;99.90
76203;DHT22;64985;46.364;17.008;2022-12-18T06:56:35;-5.30;99.90
76203;DHT22;64985;46.364;17.008;2022-12-18T06:59:37;-5.20;99.90
76203;DHT22;64985;46.364;17.008;2022-12-18T07:02:39;-5.20;99.90
76203;DHT22;64985;46.364;17.008;2022-12-18T07:05:42;-5.10;99.90
76203;DHT22;64985;46.364;17.008;2022-12-18T07:08:45;-5.10;99.90
76203;DHT22;64985;46.364;17.008;2022-12-18T07:11:48;-5.20;99.90
76203;DHT22;64985;46.364;17.008;2022-12-18T07:14:50;-5.20;99.90
76203;DHT22;64985;46.364;17.008;2022-12-18T07:17:52;-5.20;99.90
76203;DHT22;64985;46.364;17.008;2022-12-18T07:20:54;-5.20;99.90
76203;DHT22;64985;46.364;17.008;2022-12-18T07:23:56;-5.20;99.90
76203;DHT22;64985;46.364;17.008;2022-12-18T07:26:58;-5.20;99.90
76203;DHT22;64985;46.364;17.008;2022-12-18T07:30:00;-5.10;99.90
76203;DHT22;64985;46.364;17.008;2022-12-18T07:33:03;-5.00;99.90
76203;DHT22;64985;46.364;17.008;2022-12-18T07:36:06;-4.90;99.90
76203;DHT22;64985;46.364;17.008;2022-12-18T07:39:10;-4.80;99.90
76203;DHT22;64985;46.364;17.008;2022-12-18T07:42:13;-4.80;99.90
76203;DHT22;64985;46.364;17.008;2022-12-18T07:45:33;-4.70;99.90
76203;DHT22;64985;46.364;17.008;2022-12-18T07:48:35;-4.50;99.90
76203;DHT22;64985;46.364;17.008;2022-12-18T07:51:37;-4.50;99.90
76203;DHT22;64985;46.364;17.008;2022-12-18T07:54:39;-4.40;99.90
76203;DHT22;64985;46.364;17.008;2022-12-18T07:57:42;-4.40;99.90
76203;DHT22;64985;46.364;17.008;2022-12-18T08:01:06;-4.30;99.90
76203;DHT22;64985;46.364;17.008;2022-12-18T08:04:09;-4.30;99.90
76203;DHT22;64985;46.364;17.008;2022-12-18T08:07:11;-4.20;99.90
76203;DHT22;64985;46.364;17.008;2022-12-18T08:10:13;-4.10;99.90
76203;DHT22;64985;46.364;17.008;2022-12-18T08:13:15;-3.90;99.90
76203;DHT22;64985;46.364;17.008;2022-12-18T08:16:18;-3.50;99.90
76203;DHT22;64985;46.364;17.008;2022-12-18T08:19:20;-3.30;99.90
76203;DHT22;64985;46.364;17.008;2022-12-18T08:22:23;-3.10;99.90
76203;DHT22;64985;46.364;17.008;2022-12-18T08:25:25;-3.00;99.90
76203;DHT22;64985;46.364;17.008;2022-12-18T08:28:27;-2.90;99.90
76203;DHT22;64985;46.364;17.008;2022-12-18T08:31:29;-2.70;99.90
76203;DHT22;64985;46.364;17.008;2022-12-18T08:34:32;-2.40;99.90
76203;DHT22;64985;46.364;17.008;2022-12-18T08:37:34;-2.20;99.90
76203;DHT22;64985;46.364;17.008;2022-12-18T08:40:37;-2.10;99.90
76203;DHT22;64985;46.364;17.008;2022-12-18T08:43:39;-1.80;99.90
76203;DHT22;64985;46.364;17.008;2022-12-18T08:47:00;-1.50;99.90
76203;DHT22;64985;46.364;17.008;2022-12-18T08:50:02;-1.10;99.90
76203;DHT22;64985;46.364;17.008;2022-12-18T08:53:05;-0.30;99.90
76203;DHT22;64985;46.364;17.008;2022-12-18T08:56:07;0.90;99.90
76203;DHT22;64985;46.364;17.008;2022-12-18T08:59:09;1.80;99.90
76203;DHT22;64985;46.364;17.008;2022-12-18T09:02:19;2.20;99.90
76203;DHT22;64985;46.364;17.008;2022-12-18T09:05:22;2.70;99.90
76203;DHT22;64985;46.364;17.008;2022-12-18T09:08:24;2.80;96.30
76203;DHT22;64985;46.364;17.008;2022-12-18T09:11:27;3.30;95.70
76203;DHT22;64985;46.364;17.008;2022-12-18T09:14:30;3.90;88.90
76203;DHT22;64985;46.364;17.008;2022-12-18T09:17:32;3.90;75.00
76203;DHT22;64985;46.364;17.008;2022-12-18T09:20:36;4.20;84.30
76203;DHT22;64985;46.364;17.008;2022-12-18T09:23:38;4.40;77.50
76203;DHT22;64985;46.364;17.008;2022-12-18T09:26:41;4.70;73.40
76203;DHT22;64985;46.364;17.008;2022-12-18T09:29:47;5.10;71.20
76203;DHT22;64985;46.364;17.008;2022-12-18T09:32:49;5.20;67.50
76203;DHT22;64985;46.364;17.008;2022-12-18T09:35:52;4.80;63.20
76203;DHT22;64985;46.364;17.008;2022-12-18T09:38:54;4.40;61.60
76203;DHT22;64985;46.364;17.008;2022-12-18T09:41:57;4.10;67.40
76203;DHT22;64985;46.364;17.008;2022-12-18T09:45:01;3.50;72.50
76203;DHT22;64985;46.364;17.008;2022-12-18T09:48:05;3.00;76.70
76203;DHT22;64985;46.364;17.008;2022-12-18T09:51:57;2.70;87.70
76203;DHT22;64985;46.364;17.008;2022-12-18T09:54:40;2.30;87.80
76203;DHT22;64985;46.364;17.008;2022-12-18T09:57:47;1.90;90.20
76203;DHT22;64985;46.364;17.008;2022-12-18T10:00:52;1.60;92.10
76203;DHT22;64985;46.364;17.008;2022-12-18T10:03:55;1.40;93.90
76203;DHT22;64985;46.364;17.008;2022-12-18T10:07:07;1.50;95.80
76203;DHT22;64985;46.364;17.008;2022-12-18T10:10:52;1.50;95.00
76203;DHT22;64985;46.364;17.008;2022-12-18T10:14:47;1.40;93.70
76203;DHT22;64985;46.364;17.008;2022-12-18T10:20:58;1.40;94.20
76203;DHT22;64985;46.364;17.008;2022-12-18T10:27:23;1.40;95.20
76203;DHT22;64985;46.364;17.008;2022-12-18T10:30:26;1.40;93.90
76203;DHT22;64985;46.364;17.008;2022-12-18T10:33:30;1.50;94.40
76203;DHT22;64985;46.364;17.008;2022-12-18T10:36:33;1.40;95.60
76203;DHT22;64985;46.364;17.008;2022-12-18T10:39:35;1.40;94.70
76203;DHT22;64985;46.364;17.008;2022-12-18T10:42:39;1.30;94.00
76203;DHT22;64985;46.364;17.008;2022-12-18T10:49:27;1.40;96.40
76203;DHT22;64985;46.364;17.008;2022-12-18T10:52:30;1.50;96.30
76203;DHT22;64985;46.364;17.008;2022-12-18T10:55:39;1.60;94.90
76203;DHT22;64985;46.364;17.008;2022-12-18T10:58:41;1.50;95.10
76203;DHT22;64985;46.364;17.008;2022-12-18T11:01:55;1.60;92.90
76203;DHT22;64985;46.364;17.008;2022-12-18T11:04:59;1.60;95.00
76203;DHT22;64985;46.364;17.008;2022-12-18T11:08:01;1.80;94.90
76203;DHT22;64985;46.364;17.008;2022-12-18T11:11:07;1.80;93.70
76203;DHT22;64985;46.364;17.008;2022-12-18T11:14:30;1.90;93.80
76203;DHT22;64985;46.364;17.008;2022-12-18T11:17:35;2.00;94.80
76203;DHT22;64985;46.364;17.008;2022-12-18T11:20:38;2.10;91.20
76203;DHT22;64985;46.364;17.008;2022-12-18T11:23:50;2.30;85.30
76203;DHT22;64985;46.364;17.008;2022-12-18T11:26:52;2.30;90.80
76203;DHT22;64985;46.364;17.008;2022-12-18T11:33:19;2.90;76.80
76203;DHT22;64985;46.364;17.008;2022-12-18T11:36:23;3.30;76.60
76203;DHT22;64985;46.364;17.008;2022-12-18T11:39:52;3.60;77.60
76203;DHT22;64985;46.364;17.008;2022-12-18T11:43:48;4.20;59.30
76203;DHT22;64985;46.364;17.008;2022-12-18T11:46:40;4.90;53.60
76203;DHT22;64985;46.364;17.008;2022-12-18T11:49:49;5.10;51.10
76203;DHT22;64985;46.364;17.008;2022-12-18T11:52:51;5.40;51.90
76203;DHT22;64985;46.364;17.008;2022-12-18T11:56:26;5.40;49.50
76203;DHT22;64985;46.364;17.008;2022-12-18T12:29:56;7.10;41.10
76203;DHT22;64985;46.364;17.008;2022-12-18T12:39:33;7.90;37.30
76203;DHT22;64985;46.364;17.008;2022-12-18T12:42:42;7.80;38.90
76203;DHT22;64985;46.364;17.008;2022-12-18T12:46:06;8.00;33.20
76203;DHT22;64985;46.364;17.008;2022-12-18T12:49:20;8.10;37.00
76203;DHT22;64985;46.364;17.008;2022-12-18T12:52:34;8.30;36.60
76203;DHT22;64985;46.364;17.008;2022-12-18T12:55:38;8.60;36.80
76203;DHT22;64985;46.364;17.008;2022-12-18T13:02:29;8.60;31.40
76203;DHT22;64985;46.364;17.008;2022-12-18T13:05:49;8.50;34.50
76203;DHT22;64985;46.364;17.008;2022-12-18T13:08:58;8.40;30.50
76203;DHT22;64985;46.364;17.008;2022-12-18T13:12:03;8.40;34.30
76203;DHT22;64985;46.364;17.008;2022-12-18T13:15:42;8.10;34.20
76203;DHT22;64985;46.364;17.008;2022-12-18T13:18:55;8.20;34.30
76203;DHT22;64985;46.364;17.008;2022-12-18T13:22:01;8.00;33.00
76203;DHT22;64985;46.364;17.008;2022-12-18T13:41:34;7.90;34.30
76203;DHT22;64985;46.364;17.008;2022-12-18T13:44:41;8.00;36.50
76203;DHT22;64985;46.364;17.008;2022-12-18T13:47:43;8.00;41.00
76203;DHT22;64985;46.364;17.008;2022-12-18T13:51:07;8.30;40.60
76203;DHT22;64985;46.364;17.008;2022-12-18T13:57:35;8.40;38.80
76203;DHT22;64985;46.364;17.008;2022-12-18T14:00:44;8.30;36.80
76203;DHT22;64985;46.364;17.008;2022-12-18T14:03:47;8.40;40.40
76203;DHT22;64985;46.364;17.008;2022-12-18T14:06:54;8.20;34.80
76203;DHT22;64985;46.364;17.008;2022-12-18T14:09:59;7.90;36.60
76203;DHT22;64985;46.364;17.008;2022-12-18T14:13:31;7.90;38.50
76203;DHT22;64985;46.364;17.008;2022-12-18T14:16:34;8.00;38.70
76203;DHT22;64985;46.364;17.008;2022-12-18T14:19:41;8.00;41.00
76203;DHT22;64985;46.364;17.008;2022-12-18T14:22:46;7.90;37.90
76203;DHT22;64985;46.364;17.008;2022-12-18T14:25:49;7.90;41.40
76203;DHT22;64985;46.364;17.008;2022-12-18T14:28:51;7.80;42.00
76203;DHT22;64985;46.364;17.008;2022-12-18T14:35:18;7.10;43.90
76203;DHT22;64985;46.364;17.008;2022-12-18T14:41:28;5.20;48.60
76203;DHT22;64985;46.364;17.008;2022-12-18T14:44:31;4.40;54.20
76203;DHT22;64985;46.364;17.008;2022-12-18T14:47:51;3.60;62.80
76203;DHT22;64985;46.364;17.008;2022-12-18T14:54:17;2.40;79.10
76203;DHT22;64985;46.364;17.008;2022-12-18T14:57:25;2.00;86.80
76203;DHT22;64985;46.364;17.008;2022-12-18T15:00:30;1.50;92.00
76203;DHT22;64985;46.364;17.008;2022-12-18T15:03:33;1.10;93.50
76203;DHT22;64985;46.364;17.008;2022-12-18T15:06:37;0.70;94.30
76203;DHT22;64985;46.364;17.008;2022-12-18T15:10:11;0.50;96.80
76203;DHT22;64985;46.364;17.008;2022-12-18T15:13:23;0.20;98.70
76203;DHT22;64985;46.364;17.008;2022-12-18T15:16:27;0.00;99.40
76203;DHT22;64985;46.364;17.008;2022-12-18T15:19:38;-0.10;99.60
76203;DHT22;64985;46.364;17.008;2022-12-18T15:22:42;-0.40;99.70
76203;DHT22;64985;46.364;17.008;2022-12-18T15:25:46;-0.50;99.90
76203;DHT22;64985;46.364;17.008;2022-12-18T15:28:55;-0.60;99.90
76203;DHT22;64985;46.364;17.008;2022-12-18T15:32:03;-0.70;99.90
76203;DHT22;64985;46.364;17.008;2022-12-18T15:35:21;-0.70;99.90
76203;DHT22;64985;46.364;17.008;2022-12-18T15:38:25;-0.80;99.90
76203;DHT22;64985;46.364;17.008;2022-12-18T15:41:40;-0.90;99.90
76203;DHT22;64985;46.364;17.008;2022-12-18T15:45:03;-1.00;99.90
76203;DHT22;64985;46.364;17.008;2022-12-18T15:48:24;-1.10;99.90
76203;DHT22;64985;46.364;17.008;2022-12-18T15:51:37;-1.20;99.90
76203;DHT22;64985;46.364;17.008;2022-12-18T15:54:40;-1.30;99.90
76203;DHT22;64985;46.364;17.008;2022-12-18T15:58:03;-1.50;99.90
76203;DHT22;64985;46.364;17.008;2022-12-18T16:01:08;-1.60;99.90
76203;DHT22;64985;46.364;17.008;2022-12-18T16:04:14;-1.70;99.90
76203;DHT22;64985;46.364;17.008;2022-12-18T16:07:18;-1.80;99.90
76203;DHT22;64985;46.364;17.008;2022-12-18T16:10:27;-1.80;99.90
76203;DHT22;64985;46.364;17.008;2022-12-18T16:13:30;-1.90;99.90
76203;DHT22;64985;46.364;17.008;2022-12-18T16:16:33;-1.90;99.90
76203;DHT22;64985;46.364;17.008;2022-12-18T16:19:37;-2.10;99.90
76203;DHT22;64985;46.364;17.008;2022-12-18T16:22:42;-2.20;99.90
76203;DHT22;64985;46.364;17.008;2022-12-18T16:25:46;-2.20;99.90
76203;DHT22;64985;46.364;17.008;2022-12-18T16:28:49;-2.30;99.90
76203;DHT22;64985;46.364;17.008;2022-12-18T16:31:56;-2.40;99.90
76203;DHT22;64985;46.364;17.008;2022-12-18T16:35:00;-2.40;99.90
76203;DHT22;64985;46.364;17.008;2022-12-18T16:38:03;-2.50;99.90
76203;DHT22;64985;46.364;17.008;2022-12-18T16:41:18;-2.50;99.90
76203;DHT22;64985;46.364;17.008;2022-12-18T16:44:34;-2.70;99.90
76203;DHT22;64985;46.364;17.008;2022-12-18T16:47:38;-2.70;99.90
76203;DHT22;64985;46.364;17.008;2022-12-18T16:50:44;-2.70;99.90
76203;DHT22;64985;46.364;17.008;2022-12-18T16:53:48;-2.60;99.90
76203;DHT22;64985;46.364;17.008;2022-12-18T16:56:52;-2.70;99.90
76203;DHT22;64985;46.364;17.008;2022-12-18T16:59:55;-2.70;99.90
76203;DHT22;64985;46.364;17.008;2022-12-18T17:03:06;-2.70;99.90
76203;DHT22;64985;46.364;17.008;2022-12-18T17:06:09;-2.70;99.90
76203;DHT22;64985;46.364;17.008;2022-12-18T17:09:14;-2.80;99.90
76203;DHT22;64985;46.364;17.008;2022-12-18T17:12:23;-2.90;99.90
76203;DHT22;64985;46.364;17.008;2022-12-18T17:15:29;-3.10;99.90
76203;DHT22;64985;46.364;17.008;2022-12-18T17:18:33;-3.10;99.90
76203;DHT22;64985;46.364;17.008;2022-12-18T17:21:37;-3.10;99.90
76203;DHT22;64985;46.364;17.008;2022-12-18T17:24:42;-3.00;99.90
76203;DHT22;64985;46.364;17.008;2022-12-18T17:27:45;-3.10;99.90
76203;DHT22;64985;46.364;17.008;2022-12-18T17:30:49;-3.20;99.90
76203;DHT22;64985;46.364;17.008;2022-12-18T17:33:52;-3.30;99.90
76203;DHT22;64985;46.364;17.008;2022-12-18T17:36:56;-3.30;99.90
76203;DHT22;64985;46.364;17.008;2022-12-18T17:39:59;-3.30;99.90
76203;DHT22;64985;46.364;17.008;2022-12-18T17:43:02;-3.40;99.90
76203;DHT22;64985;46.364;17.008;2022-12-18T17:46:06;-3.40;99.90
76203;DHT22;64985;46.364;17.008;2022-12-18T17:49:10;-3.50;99.90
76203;DHT22;64985;46.364;17.008;2022-12-18T17:52:15;-3.60;99.90
76203;DHT22;64985;46.364;17.008;2022-12-18T17:55:19;-3.60;99.90
76203;DHT22;64985;46.364;17.008;2022-12-18T17:58:21;-3.60;99.90
76203;DHT22;64985;46.364;17.008;2022-12-18T18:01:25;-3.60;99.90
76203;DHT22;64985;46.364;17.008;2022-12-18T18:04:29;-3.70;99.90
76203;DHT22;64985;46.364;17.008;2022-12-18T18:07:33;-3.70;99.90
76203;DHT22;64985;46.364;17.008;2022-12-18T18:10:37;-3.70;99.90
76203;DHT22;64985;46.364;17.008;2022-12-18T18:13:40;-3.70;99.90
76203;DHT22;64985;46.364;17.008;2022-12-18T18:17:02;-3.80;99.90
76203;DHT22;64985;46.364;17.008;2022-12-18T18:20:06;-3.80;99.90
76203;DHT22;64985;46.364;17.008;2022-12-18T18:23:10;-3.80;99.90
76203;DHT22;64985;46.364;17.008;2022-12-18T18:26:13;-3.80;99.90
76203;DHT22;64985;46.364;17.008;2022-12-18T18:29:18;-3.90;99.90
76203;DHT22;64985;46.364;17.008;2022-12-18T18:32:23;-4.00;99.90
76203;DHT22;64985;46.364;17.008;2022-12-18T18:35:26;-4.00;99.90
76203;DHT22;64985;46.364;17.008;2022-12-18T18:38:50;-3.90;99.90
76203;DHT22;64985;46.364;17.008;2022-12-18T18:41:53;-4.00;99.90
76203;DHT22;64985;46.364;17.008;2022-12-18T18:44:56;-4.00;99.90
76203;DHT22;64985;46.364;17.008;2022-12-18T18:47:59;-4.00;99.90
76203;DHT22;64985;46.364;17.008;2022-12-18T18:51:06;-4.00;99.90
76203;DHT22;64985;46.364;17.008;2022-12-18T18:54:09;-4.20;99.90
76203;DHT22;64985;46.364;17.008;2022-12-18T18:57:12;-4.20;99.90
76203;DHT22;64985;46.364;17.008;2022-12-18T19:00:26;-4.20;99.90
76203;DHT22;64985;46.364;17.008;2022-12-18T19:03:30;-4.30;99.90
76203;DHT22;64985;46.364;17.008;2022-12-18T19:06:33;-4.30;99.90
76203;DHT22;64985;46.364;17.008;2022-12-18T19:09:37;-4.20;99.90
76203;DHT22;64985;46.364;17.008;2022-12-18T19:12:40;-4.20;99.90
76203;DHT22;64985;46.364;17.008;2022-12-18T19:16:04;-4.10;99.90
76203;DHT22;64985;46.364;17.008;2022-12-18T19:19:10;-4.10;99.90
76203;DHT22;64985;46.364;17.008;2022-12-18T19:22:15;-4.20;99.90
76203;DHT22;64985;46.364;17.008;2022-12-18T19:25:18;-4.30;99.90
76203;DHT22;64985;46.364;17.008;2022-12-18T19:28:22;-4.30;99.90
76203;DHT22;64985;46.364;17.008;2022-12-18T19:31:30;-4.30;99.90
76203;DHT22;64985;46.364;17.008;2022-12-18T19:34:37;-4.30;99.90
76203;DHT22;64985;46.364;17.008;2022-12-18T19:37:40;-4.30;99.90
76203;DHT22;64985;46.364;17.008;2022-12-18T19:40:44;-4.30;99.90
76203;DHT22;64985;46.364;17.008;2022-12-18T19:43:48;-4.40;99.90
76203;DHT22;64985;46.364;17.008;2022-12-18T19:46:51;-4.50;99.90
76203;DHT22;64985;46.364;17.008;2022-12-18T19:49:54;-4.50;99.90
76203;DHT22;64985;46.364;17.008;2022-12-18T19:52:58;-4.50;99.90
76203;DHT22;64985;46.364;17.008;2022-12-18T19:56:09;-4.40;99.90
76203;DHT22;64985;46.364;17.008;2022-12-18T19:59:12;-4.50;99.90
76203;DHT22;64985;46.364;17.008;2022-12-18T20:02:15;-4.50;99.90
76203;DHT22;64985;46.364;17.008;2022-12-18T20:05:18;-4.60;99.90
76203;DHT22;64985;46.364;17.008;2022-12-18T20:08:26;-4.60;99.90
76203;DHT22;64985;46.364;17.008;2022-12-18T20:11:30;-4.70;99.90
76203;DHT22;64985;46.364;17.008;2022-12-18T20:14:33;-4.70;99.90
76203;DHT22;64985;46.364;17.008;2022-12-18T20:17:37;-4.70;99.90
76203;DHT22;64985;46.364;17.008;2022-12-18T20:20:40;-4.50;99.90
76203;DHT22;64985;46.364;17.008;2022-12-18T20:23:43;-4.50;99.90
76203;DHT22;64985;46.364;17.008;2022-12-18T20:26:46;-4.60;99.90
76203;DHT22;64985;46.364;17.008;2022-12-18T20:29:49;-4.60;99.90
76203;DHT22;64985;46.364;17.008;2022-12-18T20:32:52;-4.70;99.90
76203;DHT22;64985;46.364;17.008;2022-12-18T20:36:11;-4.70;99.90
76203;DHT22;64985;46.364;17.008;2022-12-18T20:39:15;-4.70;99.90
76203;DHT22;64985;46.364;17.008;2022-12-18T20:42:20;-4.80;99.90
76203;DHT22;64985;46.364;17.008;2022-12-18T20:45:22;-5.00;99.90
76203;DHT22;64985;46.364;17.008;2022-12-18T20:48:26;-5.00;99.90
76203;DHT22;64985;46.364;17.008;2022-12-18T20:51:28;-5.00;99.90
76203;DHT22;64985;46.364;17.008;2022-12-18T20:54:33;-5.10;99.90
76203;DHT22;64985;46.364;17.008;2022-12-18T20:57:35;-5.10;99.90
76203;DHT22;64985;46.364;17.008;2022-12-18T21:00:40;-5.10;99.90
76203;DHT22;64985;46.364;17.008;2022-12-18T21:03:43;-5.20;99.90
76203;DHT22;64985;46.364;17.008;2022-12-18T21:06:48;-5.10;99.90
76203;DHT22;64985;46.364;17.008;2022-12-18T21:10:04;-5.10;99.90